Terminal Aerodrome Forecast
Issued by NWS Billings, MT

Home | Current Version | Previous Version | Text Only | Print | Product List | Glossary On
Versions: 1 2 3 4 5 6 7 8 9 10 11 12 13 14 15 16 17 18 19 20 21 22 23 24 25 26 27 28 29 30 31 32 33 34 35 36 37 38 39 40 41 42 43 44 45 46 47 48 49
000
FTUS45 KBYZ 261543 AAB
TAFSHR
TAF AMD
KSHR 261543Z 2616/2712 00000KT 3SM -SN BR BKN035 OVC045
      TEMPO 2616/2618 1 1/2SM -SN BR OVC025
     FM262000 16004KT P6SM VCSH SCT030 OVC060=

USA.gov is the U.S. government's official web portal to all federal, state and local government web resources and services.